Time;durP1;ratioP1;P1;durP2;ratioP2;P2;SDS_P1;SDS_P2;PMS_P1;PMS_P2;Temp;Humidity;BMP_temperature;BMP_pressure;BME280_temperature;BME280_humidity;BME280_pressure;Samples;Min_cycle;Max_cycle;Signal;HPM_P1;HPM_P2
2022/07/07 00:09:50;;;;;;;3.88;2.85;;;14.30;99.90;;;;;;20976810;28;20122;-56
2022/07/07 00:19:52;;;;;;;5.47;3.58;;;14.60;99.90;;;;;;20976705;28;20037;-56
2022/07/07 00:29:54;;;;;;;5.35;3.63;;;14.80;99.90;;;;;;21050955;28;20085;-56
2022/07/07 00:39:56;;;;;;;3.45;2.75;;;14.70;99.90;;;;;;21058453;28;20357;-55
2022/07/07 00:49:59;;;;;;;5.50;2.92;;;14.80;99.90;;;;;;21057614;28;20040;-46
2022/07/07 01:00:11;;;;;;;2.45;2.10;;;14.80;99.90;;;;;;21014460;28;20097;-47
2022/07/07 01:10:14;;;;;;;6.38;3.65;;;14.80;99.90;;;;;;20972209;28;20339;-56
2022/07/07 01:20:20;;;;;;;4.20;2.83;;;15.00;99.90;;;;;;20971754;28;20040;-46
2022/07/07 01:30:30;;;;;;;3.17;2.55;;;15.30;99.90;;;;;;20970941;28;20040;-55
2022/07/07 01:40:32;;;;;;;5.70;2.50;;;15.50;99.90;;;;;;20970059;28;20054;-48
2022/07/07 01:50:34;;;;;;;4.25;2.88;;;15.40;99.90;;;;;;21034127;28;20039;-47
2022/07/07 02:00:36;;;;;;;2.75;2.28;;;15.20;99.90;;;;;;21002421;28;20094;-48
2022/07/07 02:21:01;;;;;;;3.03;2.10;;;15.30;99.90;;;;;;20968085;28;20473;-56
2022/07/07 02:31:03;;;;;;;5.88;2.60;;;15.20;99.90;;;;;;20967248;28;20094;-45
2022/07/07 02:41:07;;;;;;;4.22;2.72;;;15.10;99.90;;;;;;20990698;28;20041;-50
2022/07/07 02:51:09;;;;;;;3.00;2.33;;;15.10;99.90;;;;;;20994147;28;20037;-47
2022/07/07 03:01:11;;;;;;;6.40;3.10;;;15.40;99.90;;;;;;20993708;28;20040;-47
2022/07/07 03:11:14;;;;;;;3.78;2.67;;;15.20;99.90;;;;;;20990058;28;20450;-55
2022/07/07 03:21:16;;;;;;;4.85;2.95;;;15.00;99.90;;;;;;20993453;28;20097;-55
2022/07/07 03:31:19;;;;;;;2.58;2.20;;;15.10;99.90;;;;;;20992703;28;20040;-48
2022/07/07 03:41:21;;;;;;;3.95;1.70;;;15.30;99.90;;;;;;20992534;28;20032;-56
2022/07/07 03:51:23;;;;;;;4.22;1.88;;;15.40;99.90;;;;;;20982503;28;20424;-56
2022/07/07 04:01:26;;;;;;;2.17;1.80;;;15.50;99.90;;;;;;20978303;28;20047;-55
2022/07/07 04:11:28;;;;;;;1.67;1.38;;;15.90;99.90;;;;;;20977025;28;20125;-57
2022/07/07 04:21:31;;;;;;;2.25;1.90;;;16.00;99.90;;;;;;20977986;28;20040;-55
2022/07/07 04:31:33;;;;;;;1.33;1.23;;;15.90;99.90;;;;;;20975848;28;20036;-47
2022/07/07 04:41:35;;;;;;;1.38;1.20;;;15.90;99.90;;;;;;20975037;28;20040;-46
2022/07/07 04:51:38;;;;;;;1.67;1.25;;;15.80;99.90;;;;;;20974279;28;20040;-56
2022/07/07 05:01:40;;;;;;;2.65;1.10;;;15.50;99.90;;;;;;20972297;28;20102;-56
2022/07/07 05:11:42;;;;;;;1.85;1.40;;;15.70;99.90;;;;;;20972639;28;20037;-47
2022/07/07 05:21:45;;;;;;;1.20;1.10;;;15.30;99.90;;;;;;20971708;28;20036;-47
2022/07/07 05:31:47;;;;;;;1.50;1.30;;;14.80;99.90;;;;;;20954548;28;20363;-54
2022/07/07 05:41:49;;;;;;;2.05;1.20;;;14.40;99.90;;;;;;20970100;28;20045;-46
2022/07/07 05:51:52;;;;;;;1.88;1.50;;;14.20;99.90;;;;;;20969328;28;20036;-55
2022/07/07 06:01:55;;;;;;;2.55;1.35;;;14.10;99.90;;;;;;20968557;28;20062;-55
2022/07/07 06:11:58;;;;;;;1.90;1.40;;;14.40;99.90;;;;;;20984005;28;20056;-56
2022/07/07 06:22:01;;;;;;;3.83;0.90;;;19.30;99.90;;;;;;20984889;28;20108;-56
2022/07/07 06:32:06;;;;;;;1.27;0.98;;;19.70;99.70;;;;;;20968002;28;20397;-52
2022/07/07 06:42:09;;;;;;;8.43;0.98;;;23.00;92.80;;;;;;20967561;28;20029;-59
2022/07/07 06:52:16;;;;;;;0.80;0.80;;;25.60;91.90;;;;;;20950118;28;20044;-58
2022/07/07 07:02:19;;;;;;;1.17;1.08;;;29.00;77.60;;;;;;20966072;28;20040;-58
2022/07/07 07:12:21;;;;;;;3.03;1.50;;;29.60;77.30;;;;;;20966450;28;20110;-58
2022/07/07 07:22:25;;;;;;;1.67;1.53;;;30.10;73.60;;;;;;20969805;28;20556;-59
2022/07/07 07:32:28;;;;;;;2.65;1.70;;;30.70;72.70;;;;;;20980598;28;20059;-57
2022/07/07 07:42:30;;;;;;;3.50;1.43;;;31.30;74.00;;;;;;20979768;28;20130;-57
2022/07/07 07:52:32;;;;;;;1.60;1.50;;;31.70;71.90;;;;;;20978553;28;20473;-59
2022/07/07 08:02:35;;;;;;;1.35;1.25;;;31.20;71.10;;;;;;20978001;28;20040;-59
2022/07/07 08:12:37;;;;;;;2.45;1.30;;;28.80;72.50;;;;;;20911135;28;20048;-57
2022/07/07 08:22:40;;;;;;;1.40;1.15;;;28.10;80.30;;;;;;20910168;28;20075;-53
2022/07/07 08:32:45;;;;;;;2.50;1.60;;;27.90;74.90;;;;;;20893065;28;20091;-55
2022/07/07 08:42:47;;;;;;;1.50;1.23;;;25.70;82.90;;;;;;20892884;28;20581;-59
2022/07/07 08:52:52;;;;;;;1.30;1.20;;;27.00;80.30;;;;;;20892828;28;20099;-59
2022/07/07 09:02:58;;;;;;;1.58;1.48;;;28.60;78.30;;;;;;20874605;28;20041;-59
2022/07/07 09:13:01;;;;;;;1.92;1.50;;;29.10;79.50;;;;;;20972367;28;20090;-60
2022/07/07 09:23:04;;;;;;;2.33;1.70;;;29.00;77.10;;;;;;20971922;28;20477;-59
2022/07/07 09:33:15;;;;;;;1.70;1.60;;;27.40;76.50;;;;;;20971187;28;20037;-57
2022/07/07 09:43:18;;;;;;;3.05;1.70;;;27.20;82.10;;;;;;20973303;28;20032;-61
2022/07/07 09:53:20;;;;;;;2.05;1.30;;;28.50;77.20;;;;;;21052797;28;20105;-59
2022/07/07 10:03:23;;;;;;;3.40;2.78;;;28.90;75.70;;;;;;20979051;28;20488;-60
2022/07/07 10:13:29;;;;;;;6.05;2.42;;;28.20;76.30;;;;;;20968217;28;20040;-60
2022/07/07 10:23:34;;;;;;;2.20;2.00;;;28.20;79.30;;;;;;20967991;28;20036;-60
2022/07/07 10:33:37;;;;;;;2.83;2.38;;;27.80;82.10;;;;;;20967174;28;20028;-60
2022/07/07 10:43:44;;;;;;;4.97;2.30;;;28.40;80.00;;;;;;20966311;28;20362;-60
2022/07/07 10:54:02;;;;;;;1.98;1.63;;;27.80;85.40;;;;;;20966947;28;20041;-59
2022/07/07 11:04:04;;;;;;;2.72;2.40;;;27.10;78.30;;;;;;20975724;28;20044;-58
2022/07/07 11:14:10;;;;;;;4.10;2.50;;;25.60;82.20;;;;;;20982799;28;20070;-60
2022/07/07 11:24:18;;;;;;;2.75;2.42;;;26.60;83.70;;;;;;20980960;28;20040;-60
2022/07/07 11:34:21;;;;;;;3.80;2.00;;;27.70;84.10;;;;;;20980529;28;20101;-60
2022/07/07 11:44:24;;;;;;;2.55;2.35;;;28.10;79.30;;;;;;20979295;28;20118;-60
2022/07/07 11:54:26;;;;;;;1.85;1.52;;;26.40;82.30;;;;;;20979126;28;20036;-60
2022/07/07 12:04:29;;;;;;;2.70;2.45;;;26.70;83.40;;;;;;20977803;28;20052;-60
2022/07/07 12:14:32;;;;;;;3.38;1.98;;;27.40;81.20;;;;;;20976735;28;20521;-59
2022/07/07 12:24:34;;;;;;;4.43;2.40;;;25.40;81.00;;;;;;20976167;28;20481;-58
2022/07/07 12:34:45;;;;;;;3.25;2.85;;;24.50;86.90;;;;;;20975731;28;20485;-53
2022/07/07 12:44:48;;;;;;;3.70;3.30;;;24.40;86.20;;;;;;20974926;28;20090;-58
2022/07/07 12:54:55;;;;;;;3.78;3.10;;;22.90;91.20;;;;;;20973693;28;20094;-58
2022/07/07 13:04:57;;;;;;;3.15;2.70;;;22.20;94.70;;;;;;20972442;28;20265;-58
2022/07/07 13:15:00;;;;;;;4.80;2.80;;;22.60;94.10;;;;;;20972833;28;20110;-59
2022/07/07 13:25:02;;;;;;;5.35;3.08;;;23.10;92.90;;;;;;20970903;28;20036;-58
2022/07/07 13:35:06;;;;;;;2.38;2.17;;;22.10;92.10;;;;;;20970515;28;20033;-58
2022/07/07 13:45:09;;;;;;;3.25;2.45;;;21.30;95.20;;;;;;20969890;28;20036;-60
2022/07/07 13:55:11;;;;;;;2.72;2.00;;;23.70;93.20;;;;;;20969332;28;20116;-59
2022/07/07 14:05:15;;;;;;;1.95;1.70;;;25.80;90.10;;;;;;20985314;28;20041;-60
2022/07/07 14:15:18;;;;;;;9.07;2.10;;;27.40;85.90;;;;;;20968494;28;20040;-60
2022/07/07 14:25:20;;;;;;;6.93;2.10;;;28.60;81.60;;;;;;20986100;28;20036;-60
2022/07/07 14:35:25;;;;;;;4.85;2.40;;;29.00;80.10;;;;;;20966472;28;20044;-59
2022/07/07 14:45:30;;;;;;;3.42;2.05;;;28.40;73.30;;;;;;20934560;28;20086;-58
2022/07/07 14:55:33;;;;;;;2.20;1.98;;;24.30;80.90;;;;;;20966418;28;20024;-57
2022/07/07 15:05:36;;;;;;;2.55;2.35;;;23.70;83.50;;;;;;20966263;28;20496;-58
2022/07/07 15:15:38;;;;;;;2.50;2.30;;;23.40;83.90;;;;;;20965871;28;20044;-51
2022/07/07 15:25:41;;;;;;;4.28;3.38;;;22.90;86.90;;;;;;20965708;28;20056;-57
2022/07/07 15:35:44;;;;;;;2.78;2.50;;;21.90;87.40;;;;;;20964966;28;20036;-58
2022/07/07 15:45:47;;;;;;;3.90;2.78;;;21.00;90.10;;;;;;20972472;28;20040;-57
2022/07/07 15:55:49;;;;;;;6.30;3.25;;;20.60;91.70;;;;;;20979277;28;20396;-57
2022/07/07 16:05:52;;;;;;;3.30;2.70;;;20.40;93.50;;;;;;20978396;28;20048;-58
2022/07/07 16:15:56;;;;;;;3.15;2.85;;;20.10;94.20;;;;;;20977431;28;20037;-58
2022/07/07 16:25:59;;;;;;;5.55;2.83;;;20.00;94.10;;;;;;20976610;28;20090;-57
2022/07/07 16:36:03;;;;;;;4.97;4.25;;;20.10;96.10;;;;;;20977101;28;20457;-57
2022/07/07 16:46:05;;;;;;;6.55;4.18;;;20.40;93.20;;;;;;20975299;28;20162;-57
2022/07/07 16:56:08;;;;;;;6.72;4.82;;;20.00;94.80;;;;;;20974190;28;20036;-57
2022/07/07 17:06:10;;;;;;;4.15;2.47;;;19.80;94.40;;;;;;20973557;28;20097;-57
2022/07/07 17:16:13;;;;;;;4.22;2.95;;;19.50;96.40;;;;;;20972683;28;20537;-57
2022/07/07 17:26:16;;;;;;;4.13;2.95;;;19.30;98.20;;;;;;20955327;28;20040;-57
2022/07/07 17:36:19;;;;;;;4.38;3.95;;;18.80;99.90;;;;;;20971274;28;20032;-57
2022/07/07 17:46:22;;;;;;;4.47;3.30;;;18.80;98.40;;;;;;20970230;28;20037;-48
2022/07/07 17:56:24;;;;;;;4.05;3.10;;;18.90;99.80;;;;;;20969156;28;20036;-57
2022/07/07 18:06:27;;;;;;;3.72;3.40;;;18.70;99.90;;;;;;20984747;28;20109;-57
2022/07/07 18:16:29;;;;;;;7.38;3.67;;;18.60;99.90;;;;;;20985081;28;20070;-57
2022/07/07 18:26:32;;;;;;;3.92;3.50;;;18.50;99.90;;;;;;20967832;28;20105;-57
2022/07/07 18:36:36;;;;;;;4.53;2.90;;;18.30;99.90;;;;;;20967325;28;20090;-57
2022/07/07 18:46:38;;;;;;;4.53;3.50;;;18.10;99.90;;;;;;20967030;28;20032;-57
2022/07/07 18:56:41;;;;;;;5.03;4.53;;;17.70;99.90;;;;;;20966727;28;20094;-55
2022/07/07 19:06:45;;;;;;;5.07;4.47;;;17.30;99.90;;;;;;20966340;28;20044;-56
2022/07/07 19:16:47;;;;;;;5.97;4.88;;;16.70;99.90;;;;;;20967765;28;20041;-56
2022/07/07 19:26:50;;;;;;;5.82;5.22;;;16.30;99.90;;;;;;20982152;28;20082;-56
2022/07/07 19:36:55;;;;;;;7.35;5.25;;;16.10;99.90;;;;;;20980841;28;20033;-56
2022/07/07 19:46:58;;;;;;;5.63;5.03;;;15.90;99.90;;;;;;20979663;28;20078;-56
2022/07/07 19:57:00;;;;;;;6.70;5.22;;;15.80;99.90;;;;;;20979094;28;20082;-56
2022/07/07 20:07:03;;;;;;;5.07;4.40;;;15.70;99.90;;;;;;20978252;28;20102;-56
2022/07/07 20:17:05;;;;;;;8.88;4.38;;;15.50;99.90;;;;;;20977702;28;20041;-56
2022/07/07 20:27:08;;;;;;;6.20;5.60;;;15.50;99.90;;;;;;20976280;28;20029;-56
2022/07/07 20:37:10;;;;;;;5.80;4.47;;;15.70;99.90;;;;;;20959549;28;20029;-50
2022/07/07 20:47:14;;;;;;;3.88;3.55;;;16.00;99.90;;;;;;20976238;28;20036;-56
2022/07/07 20:57:16;;;;;;;4.35;2.72;;;16.10;99.90;;;;;;20974161;28;20448;-56
2022/07/07 21:07:19;;;;;;;2.72;2.20;;;16.10;99.90;;;;;;20973408;28;20093;-56
2022/07/07 21:17:22;;;;;;;3.22;2.10;;;15.90;99.90;;;;;;20972775;28;20474;-55
2022/07/07 21:27:24;;;;;;;2.13;1.40;;;15.50;99.90;;;;;;20972197;28;20478;-56
2022/07/07 21:37:26;;;;;;;2.00;1.67;;;15.20;99.90;;;;;;20971029;28;20044;-46
2022/07/07 21:47:29;;;;;;;1.20;1.10;;;14.70;99.90;;;;;;20969669;28;20477;-54
2022/07/07 21:57:31;;;;;;;2.90;1.40;;;14.20;99.90;;;;;;20970878;28;20090;-54
2022/07/07 22:07:36;;;;;;;1.40;1.10;;;13.80;99.90;;;;;;20986018;28;20123;-56
2022/07/07 22:17:38;;;;;;;1.55;1.13;;;13.40;99.90;;;;;;20968649;28;20146;-55
2022/07/07 22:27:41;;;;;;;1.75;0.85;;;13.40;99.90;;;;;;20984816;28;20036;-48
2022/07/07 22:37:43;;;;;;;1.20;0.90;;;13.40;99.90;;;;;;20968397;28;20040;-49
2022/07/07 22:47:45;;;;;;;1.05;0.60;;;13.30;99.90;;;;;;20966939;28;20461;-55
2022/07/07 22:57:48;;;;;;;0.90;0.65;;;13.10;99.90;;;;;;20980555;28;20036;-47
2022/07/07 23:07:50;;;;;;;2.38;0.40;;;12.90;99.90;;;;;;20982790;28;20070;-54
2022/07/07 23:17:53;;;;;;;1.33;0.50;;;12.60;99.90;;;;;;20982604;28;20101;-47
2022/07/07 23:27:56;;;;;;;0.38;0.30;;;12.60;99.90;;;;;;20981601;28;20070;-54
2022/07/07 23:37:58;;;;;;;0.57;0.40;;;12.60;99.90;;;;;;20980540;28;20062;-45
2022/07/07 23:48:00;;;;;;;0.65;0.45;;;12.60;99.90;;;;;;20980224;28;20044;-55
2022/07/07 23:58:03;;;;;;;0.30;0.30;;;12.50;99.90;;;;;;20979264;28;20033;-47
